Time;durP1;ratioP1;P1;durP2;ratioP2;P2;SDS_P1;SDS_P2;PMS_P1;PMS_P2;Temp;Humidity;BMP_temperature;BMP_pressure;BME280_temperature;BME280_humidity;BME280_pressure;Samples;Min_cycle;Max_cycle;Signal;HPM_P1;HPM_P2
2023/06/06 00:01:20;;;;;;;30.75;20.88;;;15.50;99.90;;;;;;5116615;28;20047;-76
2023/06/06 00:03:48;;;;;;;47.38;22.20;;;15.40;99.90;;;;;;5116948;28;20059;-77
2023/06/06 00:06:15;;;;;;;31.98;21.58;;;15.40;99.90;;;;;;5116454;28;20510;-76
2023/06/06 00:08:42;;;;;;;40.40;20.98;;;15.40;99.90;;;;;;5117001;28;20049;-76
2023/06/06 00:11:09;;;;;;;42.58;23.17;;;15.40;99.90;;;;;;5098185;28;20035;-77
2023/06/06 00:13:35;;;;;;;32.05;20.80;;;15.50;99.90;;;;;;5116679;28;20461;-76
2023/06/06 00:16:02;;;;;;;51.95;22.65;;;15.40;99.90;;;;;;5116647;28;20477;-76
2023/06/06 00:18:28;;;;;;;35.08;21.52;;;15.50;99.90;;;;;;5116608;28;20031;-76
2023/06/06 00:20:54;;;;;;;38.45;22.60;;;15.50;99.90;;;;;;5098344;28;20034;-76
2023/06/06 00:23:21;;;;;;;30.63;20.95;;;;;;;;;;5116530;28;20035;-76
2023/06/06 00:25:49;;;;;;;32.80;22.20;;;15.50;99.90;;;;;;5116454;28;20107;-76
2023/06/06 00:28:15;;;;;;;35.50;22.02;;;15.50;99.90;;;;;;5116428;28;20032;-76
2023/06/06 00:30:41;;;;;;;32.90;21.20;;;15.50;99.90;;;;;;5116444;28;20137;-77
2023/06/06 00:33:07;;;;;;;37.28;22.00;;;15.50;99.90;;;;;;5116046;28;20046;-76
2023/06/06 00:35:33;;;;;;;30.05;22.02;;;15.50;99.90;;;;;;5116018;28;20028;-77
2023/06/06 00:37:58;;;;;;;36.67;21.38;;;15.50;99.90;;;;;;5116279;28;20032;-76
2023/06/06 00:40:24;;;;;;;28.23;20.15;;;15.50;99.90;;;;;;5116506;28;20027;-76
2023/06/06 00:42:50;;;;;;;29.13;20.63;;;15.50;99.90;;;;;;5097571;28;20035;-76
2023/06/06 00:45:16;;;;;;;34.30;21.35;;;15.40;99.90;;;;;;5116153;28;20102;-76
2023/06/06 00:47:42;;;;;;;33.28;22.15;;;15.40;99.90;;;;;;5116289;28;20445;-76
2023/06/06 00:50:12;;;;;;;37.63;22.77;;;15.30;99.90;;;;;;5115953;28;20024;-76
2023/06/06 00:52:44;;;;;;;35.70;22.67;;;15.30;99.90;;;;;;5097250;28;20043;-76
2023/06/06 00:55:11;;;;;;;34.92;21.77;;;15.30;99.90;;;;;;5096699;28;20027;-76
2023/06/06 00:57:37;;;;;;;32.15;22.35;;;15.30;99.90;;;;;;5097917;28;20126;-76
2023/06/06 01:00:06;;;;;;;38.10;24.30;;;15.30;99.90;;;;;;5115961;28;20129;-76
2023/06/06 01:02:37;;;;;;;36.55;23.20;;;15.30;99.90;;;;;;5115552;28;20110;-76
2023/06/06 01:05:09;;;;;;;35.70;22.90;;;15.30;99.90;;;;;;5097764;28;20034;-76
2023/06/06 01:07:37;;;;;;;37.45;22.77;;;15.30;99.90;;;;;;5116479;28;20039;-76
2023/06/06 01:10:06;;;;;;;60.83;24.98;;;15.30;99.90;;;;;;5097491;28;20038;-76
2023/06/06 01:12:47;;;;;;;45.72;24.67;;;15.30;99.90;;;;;;5115162;28;20450;-76
2023/06/06 01:15:24;;;;;;;34.85;21.65;;;15.30;99.90;;;;;;5115699;28;20038;-76
2023/06/06 01:17:51;;;;;;;42.47;23.05;;;15.30;99.90;;;;;;5115660;28;20038;-76
2023/06/06 01:20:16;;;;;;;81.50;26.50;;;15.30;99.90;;;;;;5115843;28;20055;-76
2023/06/06 01:22:43;;;;;;;41.25;23.23;;;15.40;99.90;;;;;;5115689;28;20046;-76
2023/06/06 01:25:10;;;;;;;40.95;23.13;;;15.30;99.90;;;;;;5115357;28;20023;-76
2023/06/06 01:27:35;;;;;;;60.65;24.63;;;15.30;99.90;;;;;;5115337;28;20035;-76
2023/06/06 01:30:04;;;;;;;40.83;22.05;;;15.30;99.90;;;;;;5115320;28;20035;-76
2023/06/06 01:32:59;;;;;;;36.60;22.70;;;15.30;99.90;;;;;;5096865;28;20040;-76
2023/06/06 01:35:26;;;;;;;32.30;20.58;;;15.30;99.90;;;;;;5114980;28;20388;-76
2023/06/06 01:38:13;;;;;;;31.65;20.70;;;15.30;99.90;;;;;;5096774;28;20506;-76
2023/06/06 01:40:42;;;;;;;37.22;21.83;;;15.40;99.90;;;;;;5115131;28;20032;-76
2023/06/06 01:43:10;;;;;;;36.75;21.67;;;15.30;99.90;;;;;;5114988;28;20039;-76
2023/06/06 01:45:38;;;;;;;34.17;21.50;;;15.30;99.90;;;;;;5114879;28;20024;-76
2023/06/06 01:48:04;;;;;;;29.10;19.33;;;15.40;99.90;;;;;;5096565;28;20032;-76
2023/06/06 01:50:32;;;;;;;31.38;20.20;;;15.30;99.90;;;;;;5114975;28;20419;-76
2023/06/06 01:52:58;;;;;;;32.88;21.60;;;15.30;99.90;;;;;;5114884;28;20123;-76
2023/06/06 01:55:23;;;;;;;34.15;23.13;;;15.30;99.90;;;;;;5115133;28;20102;-75
2023/06/06 01:57:49;;;;;;;41.35;24.85;;;15.30;99.90;;;;;;5114825;28;20033;-76
2023/06/06 02:00:16;;;;;;;37.42;24.27;;;15.30;99.90;;;;;;5114730;28;20027;-76
2023/06/06 02:02:41;;;;;;;35.95;24.45;;;15.30;99.90;;;;;;5114418;28;20043;-76
2023/06/06 02:05:07;;;;;;;36.17;23.17;;;15.30;99.90;;;;;;5096260;28;20190;-75
2023/06/06 02:07:34;;;;;;;40.05;22.95;;;15.20;99.90;;;;;;5114843;28;20110;-76
2023/06/06 02:10:05;;;;;;;36.65;22.92;;;15.30;99.90;;;;;;5096333;28;20073;-75
2023/06/06 02:12:31;;;;;;;37.58;22.63;;;;;;;;;;5114451;28;20118;-76
2023/06/06 02:14:58;;;;;;;46.75;24.40;;;15.20;99.90;;;;;;5114438;28;20116;-76
2023/06/06 02:17:23;;;;;;;39.72;23.80;;;15.30;99.90;;;;;;5096409;28;20393;-76
2023/06/06 02:19:49;;;;;;;35.63;24.35;;;15.20;99.90;;;;;;5114361;28;20035;-75
2023/06/06 02:22:15;;;;;;;40.78;26.45;;;15.20;99.90;;;;;;5096156;28;20118;-75
2023/06/06 02:24:40;;;;;;;39.10;24.73;;;15.20;99.90;;;;;;5114300;28;20032;-76
2023/06/06 02:27:09;;;;;;;44.05;25.25;;;15.20;99.90;;;;;;5114265;28;20032;-76
2023/06/06 02:29:35;;;;;;;41.53;25.55;;;15.20;99.90;;;;;;5114406;28;20028;-75
2023/06/06 02:32:03;;;;;;;43.65;25.00;;;15.20;99.90;;;;;;5095584;28;20063;-76
2023/06/06 02:34:29;;;;;;;35.38;24.20;;;15.20;99.90;;;;;;5095938;28;20039;-75
2023/06/06 02:36:56;;;;;;;34.08;22.88;;;15.10;99.90;;;;;;5096084;28;20065;-75
2023/06/06 02:39:22;;;;;;;37.40;23.85;;;15.10;99.90;;;;;;5114148;28;20032;-75
2023/06/06 02:41:50;;;;;;;33.85;23.50;;;15.10;99.90;;;;;;5095974;28;20039;-75
2023/06/06 02:44:17;;;;;;;40.10;23.80;;;15.10;99.90;;;;;;5114136;28;20059;-75
2023/06/06 02:46:43;;;;;;;35.05;24.33;;;15.10;99.90;;;;;;5095482;28;20177;-76
2023/06/06 02:49:08;;;;;;;40.33;23.67;;;15.10;99.90;;;;;;5114220;28;20069;-75
2023/06/06 02:51:35;;;;;;;39.28;23.65;;;15.10;99.90;;;;;;5113710;28;20035;-76
2023/06/06 02:54:01;;;;;;;37.17;21.98;;;15.10;99.90;;;;;;5114086;28;20019;-75
2023/06/06 02:56:27;;;;;;;33.00;21.40;;;15.10;99.90;;;;;;5113770;28;20024;-75
2023/06/06 02:58:53;;;;;;;32.63;21.45;;;15.10;99.90;;;;;;5114212;28;20124;-75
2023/06/06 03:01:20;;;;;;;31.10;21.00;;;15.10;99.90;;;;;;5095580;28;20055;-75
2023/06/06 03:03:47;;;;;;;31.83;21.35;;;15.10;99.90;;;;;;5114040;28;20035;-75
2023/06/06 03:06:15;;;;;;;35.65;21.55;;;15.10;99.90;;;;;;5113726;28;20032;-75
2023/06/06 03:08:42;;;;;;;34.10;23.45;;;15.10;99.90;;;;;;5113697;28;20374;-75
2023/06/06 03:11:07;;;;;;;40.42;24.10;;;15.10;99.90;;;;;;5095570;28;20033;-75
2023/06/06 03:13:33;;;;;;;33.05;22.10;;;15.10;99.90;;;;;;5095412;28;20435;-75
2023/06/06 03:15:59;;;;;;;41.47;23.00;;;15.10;99.90;;;;;;5095630;28;20027;-75
2023/06/06 03:18:25;;;;;;;35.80;22.52;;;15.10;99.90;;;;;;5117227;28;20032;-75
2023/06/06 03:20:51;;;;;;;46.15;24.35;;;15.10;99.90;;;;;;5117833;28;20074;-75
2023/06/06 03:23:17;;;;;;;35.58;24.08;;;15.10;99.90;;;;;;5099487;28;20059;-75
2023/06/06 03:25:44;;;;;;;36.58;23.42;;;15.10;99.90;;;;;;5117395;28;20511;-75
2023/06/06 03:28:10;;;;;;;39.47;23.85;;;15.10;99.90;;;;;;5099259;28;20177;-75
2023/06/06 03:30:36;;;;;;;54.92;24.73;;;15.10;99.90;;;;;;5099638;28;20401;-75
2023/06/06 03:33:06;;;;;;;42.42;21.42;;;15.10;99.90;;;;;;5117311;28;20052;-75
2023/06/06 03:35:33;;;;;;;36.15;21.38;;;15.10;99.90;;;;;;5117470;28;20656;-75
2023/06/06 03:38:00;;;;;;;29.65;20.13;;;15.10;99.90;;;;;;5117445;28;20032;-75
2023/06/06 03:40:26;;;;;;;36.17;22.85;;;15.10;99.90;;;;;;5099042;28;20032;-75
2023/06/06 03:42:52;;;;;;;35.47;22.60;;;15.10;99.90;;;;;;5117257;28;20135;-75
2023/06/06 03:45:18;;;;;;;40.67;22.15;;;15.10;99.90;;;;;;5099006;28;20085;-75
2023/06/06 03:47:47;;;;;;;40.03;22.23;;;15.10;99.90;;;;;;5098939;28;20036;-75
2023/06/06 03:50:13;;;;;;;37.60;22.67;;;15.10;99.90;;;;;;5117308;28;20035;-76
2023/06/06 03:52:40;;;;;;;52.75;23.23;;;15.10;99.90;;;;;;5117045;28;20038;-75
2023/06/06 03:55:07;;;;;;;51.45;22.65;;;15.10;99.90;;;;;;5117018;28;20028;-75
2023/06/06 03:57:33;;;;;;;41.10;22.20;;;15.10;99.90;;;;;;5117246;28;20024;-75
2023/06/06 04:00:00;;;;;;;43.13;20.48;;;15.10;99.90;;;;;;5098648;28;20485;-75
2023/06/06 04:02:27;;;;;;;39.78;20.92;;;15.00;99.90;;;;;;5116801;28;20035;-75
2023/06/06 04:04:54;;;;;;;37.03;20.20;;;15.00;99.90;;;;;;5116849;28;20404;-75
2023/06/06 04:07:20;;;;;;;43.50;21.70;;;15.10;99.90;;;;;;5116932;28;20477;-75
2023/06/06 04:09:45;;;;;;;32.38;20.00;;;15.10;99.90;;;;;;5116889;28;20036;-75
2023/06/06 04:12:11;;;;;;;28.65;19.38;;;15.10;99.90;;;;;;5116415;28;20080;-75
2023/06/06 04:14:37;;;;;;;30.60;20.38;;;15.10;99.90;;;;;;5121575;27;20034;-75
2023/06/06 04:17:03;;;;;;;30.15;19.85;;;15.20;99.90;;;;;;5137255;27;20492;-76
2023/06/06 04:19:30;;;;;;;38.80;23.15;;;15.20;99.90;;;;;;5118841;27;20031;-77
2023/06/06 04:21:56;;;;;;;34.50;21.50;;;15.20;99.90;;;;;;5137078;27;20483;-77
2023/06/06 04:24:22;;;;;;;42.97;22.25;;;15.20;99.90;;;;;;5137042;27;20031;-77
2023/06/06 04:26:48;;;;;;;33.30;21.70;;;15.20;99.90;;;;;;5137564;27;20167;-78
2023/06/06 04:29:14;;;;;;;40.67;21.77;;;15.30;99.90;;;;;;5118403;27;20028;-77
2023/06/06 04:31:44;;;;;;;38.90;21.10;;;15.30;99.90;;;;;;5118495;27;20038;-76
2023/06/06 04:34:10;;;;;;;33.20;20.45;;;15.40;99.90;;;;;;5118389;27;20456;-76
2023/06/06 04:36:38;;;;;;;37.90;21.90;;;15.40;99.90;;;;;;5118406;27;20027;-77
2023/06/06 04:39:05;;;;;;;32.63;22.13;;;15.50;99.90;;;;;;5118504;27;20031;-76
2023/06/06 04:41:33;;;;;;;36.72;22.58;;;15.50;99.90;;;;;;5118482;27;20456;-77
2023/06/06 04:43:58;;;;;;;35.60;22.55;;;15.70;99.90;;;;;;5137167;27;20026;-78
2023/06/06 04:46:29;;;;;;;28.60;20.20;;;15.80;99.90;;;;;;5136690;27;20019;-77
2023/06/06 04:48:56;;;;;;;26.67;20.00;;;15.80;99.90;;;;;;5118090;27;20030;-78
2023/06/06 04:51:29;;;;;;;28.70;18.77;;;15.90;99.90;;;;;;5136579;27;20055;-77
2023/06/06 04:53:57;;;;;;;23.55;18.10;;;15.90;99.90;;;;;;5136574;27;20035;-76
2023/06/06 04:56:23;;;;;;;22.27;16.60;;;16.10;99.90;;;;;;5136432;27;20027;-75
2023/06/06 04:58:48;;;;;;;22.38;17.25;;;16.10;99.90;;;;;;5136380;27;20472;-75
2023/06/06 05:01:15;;;;;;;19.88;15.13;;;16.20;99.90;;;;;;5117904;27;20054;-76
2023/06/06 05:03:41;;;;;;;22.40;16.38;;;16.20;99.90;;;;;;5117948;27;20043;-75
2023/06/06 05:06:07;;;;;;;21.80;15.20;;;16.20;99.90;;;;;;5135990;27;20030;-76
2023/06/06 05:08:40;;;;;;;18.90;14.30;;;16.30;99.90;;;;;;5117713;27;20388;-75
2023/06/06 05:11:05;;;;;;;22.73;14.57;;;16.30;99.90;;;;;;5136107;27;20491;-75
2023/06/06 05:13:36;;;;;;;18.23;13.27;;;16.40;99.90;;;;;;5135783;27;20115;-75
2023/06/06 05:16:02;;;;;;;14.27;12.63;;;16.50;99.90;;;;;;5117356;27;20104;-75
2023/06/06 05:18:30;;;;;;;18.00;13.23;;;16.50;99.90;;;;;;5135866;27;20031;-75
2023/06/06 05:21:00;;;;;;;15.60;11.90;;;16.60;99.90;;;;;;5136048;27;20063;-75
2023/06/06 05:23:29;;;;;;;16.08;12.07;;;16.60;99.90;;;;;;5136004;27;20515;-75
2023/06/06 05:25:57;;;;;;;12.32;10.80;;;16.60;99.90;;;;;;5117323;27;20038;-75
2023/06/06 05:28:23;;;;;;;13.23;11.45;;;16.80;99.90;;;;;;5135441;27;20441;-75
2023/06/06 05:30:49;;;;;;;17.77;12.52;;;16.90;99.90;;;;;;5117262;27;20132;-75
2023/06/06 05:33:15;;;;;;;12.48;10.60;;;17.00;99.90;;;;;;5135724;27;20515;-75
2023/06/06 05:35:41;;;;;;;13.95;10.20;;;17.20;99.90;;;;;;5116834;27;20047;-75
2023/06/06 05:38:06;;;;;;;15.40;9.75;;;17.30;99.90;;;;;;5135448;27;20064;-75
2023/06/06 05:40:32;;;;;;;13.75;10.52;;;17.60;99.90;;;;;;5116406;27;20062;-74
2023/06/06 05:42:57;;;;;;;12.73;9.27;;;17.80;99.90;;;;;;5116906;27;20031;-75
2023/06/06 05:45:23;;;;;;;10.00;8.30;;;18.00;99.90;;;;;;5135406;27;20031;-75
2023/06/06 05:47:49;;;;;;;11.02;8.63;;;18.00;99.90;;;;;;5116872;27;20069;-75
2023/06/06 05:50:15;;;;;;;11.52;8.85;;;17.90;99.90;;;;;;5135166;27;20027;-75
2023/06/06 05:52:41;;;;;;;13.82;9.70;;;17.90;99.90;;;;;;5135359;27;20333;-76
2023/06/06 05:55:10;;;;;;;9.98;8.98;;;17.90;99.90;;;;;;5116957;27;20027;-75
2023/06/06 05:57:36;;;;;;;12.45;9.07;;;17.90;99.90;;;;;;5135100;27;20098;-75
2023/06/06 06:00:05;;;;;;;12.57;9.20;;;17.90;99.90;;;;;;5135103;27;20096;-74
2023/06/06 06:02:30;;;;;;;;;;;17.90;99.90;;;;;;5135644;27;20431;-75
2023/06/06 06:04:56;;;;;;;15.30;9.52;;;17.90;99.90;;;;;;5116756;27;19951;-74
2023/06/06 06:07:23;;;;;;;9.95;8.93;;;17.90;99.90;;;;;;5135049;27;20433;-75
2023/06/06 06:09:49;;;;;;;10.32;9.18;;;18.00;99.90;;;;;;5116441;27;20032;-75
2023/06/06 06:12:15;;;;;;;11.80;9.32;;;18.10;99.90;;;;;;5134781;27;20052;-75
2023/06/06 06:14:40;;;;;;;10.82;9.00;;;18.20;99.90;;;;;;5116476;27;20043;-75
2023/06/06 06:17:06;;;;;;;10.20;8.10;;;18.30;99.90;;;;;;5116373;27;20031;-74
2023/06/06 06:19:32;;;;;;;10.18;8.43;;;18.40;99.90;;;;;;5116393;27;20138;-75
2023/06/06 06:21:57;;;;;;;10.70;7.97;;;18.40;99.90;;;;;;5134991;27;20380;-74
2023/06/06 06:24:23;;;;;;;12.13;8.63;;;18.50;99.90;;;;;;5134389;27;20092;-74
2023/06/06 06:26:51;;;;;;;9.75;8.13;;;18.50;99.90;;;;;;5116522;27;20480;-74
2023/06/06 06:29:16;;;;;;;8.07;7.10;;;18.60;99.90;;;;;;5134698;27;20023;-75
2023/06/06 06:31:42;;;;;;;8.07;7.03;;;18.70;99.90;;;;;;5116229;27;20046;-74
2023/06/06 06:34:07;;;;;;;11.50;8.00;;;19.00;99.90;;;;;;5134294;27;20031;-74
2023/06/06 06:36:33;;;;;;;9.80;6.40;;;19.40;99.90;;;;;;5116222;28;20471;-74
2023/06/06 06:38:59;;;;;;;10.30;6.63;;;19.70;99.90;;;;;;5133042;28;20027;-74
2023/06/06 06:41:25;;;;;;;7.82;6.15;;;19.90;99.90;;;;;;5134562;28;20449;-74
2023/06/06 06:43:50;;;;;;;14.52;6.82;;;20.00;99.90;;;;;;5116131;28;20046;-74
2023/06/06 06:46:16;;;;;;;8.57;6.55;;;19.60;99.90;;;;;;5116282;28;20126;-74
2023/06/06 06:48:45;;;;;;;10.80;6.45;;;19.50;99.90;;;;;;5116146;28;20035;-74
2023/06/06 06:51:13;;;;;;;9.27;7.05;;;19.40;99.90;;;;;;5136069;27;20059;-74
2023/06/06 06:53:39;;;;;;;8.07;6.70;;;19.40;99.90;;;;;;5138939;27;20509;-73
2023/06/06 06:56:05;;;;;;;9.95;5.75;;;19.60;99.90;;;;;;5139059;27;20072;-74
2023/06/06 06:58:35;;;;;;;6.50;5.53;;;19.70;99.90;;;;;;5138383;27;20039;-73
2023/06/06 07:01:02;;;;;;;8.82;6.05;;;19.90;99.90;;;;;;5138879;27;20039;-74
2023/06/06 07:03:28;;;;;;;12.02;6.85;;;20.20;99.90;;;;;;5138719;27;20044;-74
2023/06/06 07:05:54;;;;;;;7.60;5.75;;;20.50;99.90;;;;;;5138442;27;20033;-73
2023/06/06 07:08:20;;;;;;;9.10;6.40;;;20.80;99.90;;;;;;5138496;27;20031;-73
2023/06/06 07:10:46;;;;;;;9.23;6.75;;;21.00;99.90;;;;;;5120078;27;20032;-73
2023/06/06 07:13:15;;;;;;;10.63;6.07;;;21.10;99.90;;;;;;5119935;27;20377;-73
2023/06/06 07:15:41;;;;;;;;;;;21.20;99.90;;;;;;5120419;27;20031;-73
2023/06/06 07:18:06;;;;;;;7.47;5.43;;;21.20;99.90;;;;;;5138051;27;19926;-73
2023/06/06 07:20:33;;;;;;;9.75;6.05;;;21.10;99.90;;;;;;5119895;27;20476;-73
2023/06/06 07:22:58;;;;;;;7.95;5.85;;;21.10;99.90;;;;;;5137777;27;20453;-70
2023/06/06 07:25:24;;;;;;;9.73;5.78;;;21.10;99.90;;;;;;5137892;27;20106;-70
2023/06/06 07:27:50;;;;;;;9.38;6.35;;;21.10;99.90;;;;;;5119518;27;20062;-73
2023/06/06 07:30:15;;;;;;;9.48;5.65;;;20.90;99.90;;;;;;5137916;27;20034;-73
2023/06/06 07:32:42;;;;;;;9.93;6.30;;;20.90;99.90;;;;;;5119410;27;20046;-73
2023/06/06 07:35:10;;;;;;;8.65;5.93;;;20.90;99.90;;;;;;5119573;27;20382;-73
2023/06/06 07:37:36;;;;;;;7.55;6.10;;;21.00;99.90;;;;;;5119464;27;20432;-73
2023/06/06 07:40:07;;;;;;;8.18;6.07;;;21.10;99.90;;;;;;5138000;27;20031;-73
2023/06/06 07:42:34;;;;;;;7.72;6.03;;;21.10;99.90;;;;;;5119531;27;20035;-73
2023/06/06 07:44:59;;;;;;;8.43;5.95;;;21.30;99.90;;;;;;5119390;27;20027;-72
2023/06/06 07:47:25;;;;;;;6.40;5.68;;;21.50;99.90;;;;;;5119255;27;20118;-72
2023/06/06 07:49:51;;;;;;;6.50;5.90;;;21.60;99.90;;;;;;5119193;27;20157;-73
2023/06/06 07:52:17;;;;;;;11.07;6.47;;;21.70;99.90;;;;;;5119019;27;20127;-73
2023/06/06 07:54:43;;;;;;;6.30;5.68;;;21.80;99.90;;;;;;5137622;27;20066;-71
2023/06/06 07:57:10;;;;;;;6.70;6.00;;;22.10;99.90;;;;;;5137550;27;20027;-70
2023/06/06 07:59:36;;;;;;;6.20;5.60;;;21.80;99.90;;;;;;5137943;27;20019;-71
2023/06/06 08:02:02;;;;;;;6.60;5.70;;;21.80;99.90;;;;;;5118905;27;20062;-71
2023/06/06 08:04:28;;;;;;;7.18;5.78;;;22.30;99.90;;;;;;5119089;27;20134;-71
2023/06/06 08:06:53;;;;;;;7.57;5.68;;;22.30;99.90;;;;;;5137756;27;20027;-70
2023/06/06 08:09:19;;;;;;;7.28;5.63;;;22.50;99.90;;;;;;5137487;27;20484;-71
2023/06/06 08:11:45;;;;;;;5.50;5.00;;;22.50;99.90;;;;;;5138182;27;20027;-70
2023/06/06 08:14:11;;;;;;;10.13;5.60;;;22.60;99.90;;;;;;5137526;27;20385;-71
2023/06/06 08:16:37;;;;;;;6.65;5.60;;;22.40;99.90;;;;;;5119581;27;20038;-71
2023/06/06 08:19:04;;;;;;;9.45;5.57;;;22.30;99.90;;;;;;5137440;27;20062;-70
2023/06/06 08:21:30;;;;;;;10.40;5.47;;;22.00;99.90;;;;;;5122233;27;20046;-73
2023/06/06 08:23:57;;;;;;;7.53;5.47;;;21.90;99.90;;;;;;5137113;27;20039;-73
2023/06/06 08:26:25;;;;;;;7.55;5.68;;;22.00;99.90;;;;;;5137192;27;20042;-73
2023/06/06 08:28:51;;;;;;;10.05;5.40;;;22.10;99.90;;;;;;5137310;27;20076;-73
2023/06/06 08:31:17;;;;;;;8.98;5.53;;;22.20;99.90;;;;;;5136688;27;20048;-72
2023/06/06 08:33:42;;;;;;;9.38;5.22;;;22.40;99.90;;;;;;5136937;27;20043;-72
2023/06/06 08:36:08;;;;;;;9.30;5.15;;;22.50;99.90;;;;;;5137074;27;20032;-70
2023/06/06 08:38:34;;;;;;;8.50;5.72;;;22.60;99.90;;;;;;5118311;27;20039;-69
2023/06/06 08:41:01;;;;;;;6.30;5.65;;;22.60;99.90;;;;;;5136661;27;20031;-70
2023/06/06 08:43:27;;;;;;;6.35;5.68;;;22.80;99.90;;;;;;5136778;27;20035;-70
2023/06/06 08:45:56;;;;;;;8.43;6.10;;;22.70;99.90;;;;;;5136591;27;20027;-70
2023/06/06 08:48:28;;;;;;;9.00;6.60;;;22.50;99.90;;;;;;5136528;27;20062;-71
2023/06/06 08:50:56;;;;;;;9.57;6.43;;;22.10;99.90;;;;;;5117869;27;20114;-72
2023/06/06 08:53:23;;;;;;;10.63;6.22;;;21.90;99.90;;;;;;5136341;27;20046;-72
2023/06/06 08:55:49;;;;;;;10.77;6.40;;;21.70;99.90;;;;;;5117959;27;20500;-72
2023/06/06 08:58:16;;;;;;;7.20;6.60;;;21.50;99.90;;;;;;5136351;27;20031;-70
2023/06/06 09:00:42;;;;;;;8.93;7.47;;;21.20;99.90;;;;;;5136023;27;20066;-70
2023/06/06 09:03:09;;;;;;;10.27;7.05;;;20.90;99.90;;;;;;5136481;27;20062;-70
2023/06/06 09:05:38;;;;;;;11.15;7.88;;;20.70;99.90;;;;;;5136228;27;20026;-71
2023/06/06 09:08:04;;;;;;;10.00;7.43;;;20.50;99.90;;;;;;5118066;27;20404;-72
2023/06/06 09:10:29;;;;;;;7.65;6.95;;;20.40;99.90;;;;;;5136100;27;20027;-72
2023/06/06 09:12:55;;;;;;;9.15;7.47;;;20.20;99.90;;;;;;5135700;27;20040;-72
2023/06/06 09:15:21;;;;;;;8.90;7.28;;;20.10;99.90;;;;;;5134958;27;20062;-72
2023/06/06 09:17:52;;;;;;;7.78;6.85;;;20.10;99.90;;;;;;5135995;27;20024;-72
2023/06/06 09:20:18;;;;;;;9.02;7.43;;;20.00;99.90;;;;;;5136261;27;20359;-72
2023/06/06 09:22:46;;;;;;;10.43;7.20;;;20.00;99.90;;;;;;5135872;27;20031;-72
2023/06/06 09:25:21;;;;;;;11.77;8.00;;;20.00;99.90;;;;;;5117437;27;20038;-72
2023/06/06 09:27:48;;;;;;;7.32;6.60;;;19.90;99.90;;;;;;5135735;27;20051;-72
2023/06/06 09:30:21;;;;;;;9.52;7.78;;;19.80;99.90;;;;;;5135656;27;20038;-72
2023/06/06 09:32:58;;;;;;;10.13;7.80;;;19.70;99.90;;;;;;5117452;27;20035;-72
2023/06/06 09:35:29;;;;;;;10.18;7.85;;;19.70;99.90;;;;;;5117579;27;20080;-72
2023/06/06 09:37:54;;;;;;;8.32;7.53;;;19.70;99.90;;;;;;5135579;27;20032;-72
2023/06/06 09:40:21;;;;;;;12.00;8.05;;;19.60;99.90;;;;;;5135504;27;20031;-70
2023/06/06 09:42:48;;;;;;;9.27;7.75;;;19.60;99.90;;;;;;5135450;27;20062;-72
2023/06/06 09:45:15;;;;;;;11.88;8.70;;;19.50;99.90;;;;;;5135600;27;20080;-72
2023/06/06 09:47:48;;;;;;;10.30;8.25;;;19.50;99.90;;;;;;5135370;27;20038;-71
2023/06/06 09:50:15;;;;;;;14.38;8.25;;;19.50;99.90;;;;;;5135316;27;20118;-72
2023/06/06 09:52:42;;;;;;;10.57;8.82;;;19.60;99.90;;;;;;5135241;27;20050;-72
2023/06/06 09:55:15;;;;;;;16.35;8.50;;;19.60;99.90;;;;;;5135198;27;20596;-72
2023/06/06 09:57:41;;;;;;;13.30;9.10;;;19.70;99.90;;;;;;5135172;27;20490;-72
2023/06/06 10:00:15;;;;;;;18.40;8.55;;;19.70;99.90;;;;;;5134653;27;20392;-72
2023/06/06 10:02:45;;;;;;;12.30;8.60;;;19.70;99.90;;;;;;5117560;27;20111;-72
2023/06/06 10:05:12;;;;;;;10.18;8.45;;;19.90;99.90;;;;;;5116806;27;20034;-72
2023/06/06 10:07:46;;;;;;;9.90;7.43;;;20.20;99.90;;;;;;5135066;27;20426;-72
2023/06/06 10:10:13;;;;;;;9.38;7.45;;;20.40;99.90;;;;;;5134983;27;20055;-72
2023/06/06 10:12:40;;;;;;;8.55;6.75;;;20.50;99.90;;;;;;5134900;27;20043;-72
2023/06/06 10:15:11;;;;;;;8.77;7.28;;;20.60;99.90;;;;;;5134578;27;20429;-72
2023/06/06 10:17:41;;;;;;;8.23;7.28;;;20.70;99.90;;;;;;5134903;27;20031;-72
2023/06/06 10:20:12;;;;;;;9.10;7.57;;;20.70;99.90;;;;;;5134807;27;20057;-70
2023/06/06 10:22:39;;;;;;;12.02;7.82;;;20.90;99.90;;;;;;5135157;27;20191;-70
2023/06/06 10:25:09;;;;;;;10.48;7.60;;;21.10;99.90;;;;;;5134578;27;20027;-70
2023/06/06 10:27:49;;;;;;;9.43;7.47;;;21.20;99.90;;;;;;5099302;27;20191;-71
2023/06/06 10:30:32;;;;;;;7.68;6.72;;;21.40;99.90;;;;;;5115848;27;20042;-70
2023/06/06 10:33:37;;;;;;;7.00;6.40;;;21.60;99.90;;;;;;5116116;27;20035;-73
2023/06/06 10:36:04;;;;;;;11.05;6.88;;;21.90;99.90;;;;;;5116450;28;20031;-70
2023/06/06 10:38:33;;;;;;;8.57;6.80;;;22.10;99.90;;;;;;5134802;28;20119;-70
2023/06/06 10:40:58;;;;;;;12.65;6.78;;;22.10;99.90;;;;;;5116285;28;20032;-71
2023/06/06 10:43:43;;;;;;;9.65;6.95;;;21.90;99.90;;;;;;5115874;28;20129;-72
2023/06/06 10:46:11;;;;;;;8.55;7.07;;;21.70;99.90;;;;;;5134585;28;20028;-70
2023/06/06 10:48:38;;;;;;;10.43;7.32;;;21.60;99.90;;;;;;5134567;28;20414;-70
2023/06/06 10:51:04;;;;;;;10.27;7.10;;;21.60;99.90;;;;;;5115964;28;20440;-72
2023/06/06 10:53:30;;;;;;;9.23;7.15;;;21.40;99.90;;;;;;5116023;28;20426;-70
2023/06/06 10:55:56;;;;;;;9.32;7.75;;;21.30;99.90;;;;;;5116007;28;20528;-72
2023/06/06 10:58:31;;;;;;;7.88;6.90;;;21.40;99.90;;;;;;5134440;28;20114;-70
2023/06/06 11:00:58;;;;;;;10.02;7.47;;;21.60;99.90;;;;;;5133870;28;20396;-70
2023/06/06 11:03:38;;;;;;;8.73;7.20;;;21.80;99.90;;;;;;5116114;28;20036;-62
2023/06/06 11:06:04;;;;;;;9.63;8.63;;;21.80;99.90;;;;;;5134972;28;20358;-63
2023/06/06 11:08:34;;;;;;;8.70;6.82;;;21.90;99.90;;;;;;5134397;28;20027;-62
2023/06/06 11:11:20;;;;;;;7.85;6.97;;;21.90;99.90;;;;;;5115973;28;20062;-63
2023/06/06 11:13:53;;;;;;;9.38;6.72;;;21.80;99.90;;;;;;5134178;28;20071;-63
2023/06/06 11:16:37;;;;;;;8.82;6.82;;;21.90;99.90;;;;;;5134223;28;20480;-64
2023/06/06 11:19:04;;;;;;;8.13;6.03;;;21.90;99.90;;;;;;5133957;28;20042;-63
2023/06/06 11:21:31;;;;;;;7.43;5.93;;;22.10;99.90;;;;;;5133966;28;20084;-62
2023/06/06 11:23:58;;;;;;;6.30;5.70;;;22.60;99.90;;;;;;5134198;28;20416;-63
2023/06/06 11:26:26;;;;;;;5.88;5.20;;;22.90;99.90;;;;;;5133965;28;20039;-62
2023/06/06 11:28:53;;;;;;;10.07;5.32;;;23.10;99.90;;;;;;5134413;28;20460;-63
2023/06/06 11:31:20;;;;;;;8.43;5.53;;;23.20;99.90;;;;;;5134476;28;20027;-63
2023/06/06 11:33:46;;;;;;;7.55;5.60;;;23.10;99.90;;;;;;5134049;28;20043;-62
2023/06/06 11:36:12;;;;;;;6.45;5.38;;;23.00;99.90;;;;;;5134048;28;20540;-62
2023/06/06 11:38:44;;;;;;;7.07;4.97;;;23.10;99.90;;;;;;5136169;27;20034;-62
2023/06/06 11:41:10;;;;;;;6.75;5.38;;;23.10;99.90;;;;;;5137754;27;20110;-63
2023/06/06 11:43:36;;;;;;;6.10;5.50;;;23.10;99.90;;;;;;5137918;27;20123;-63
2023/06/06 11:46:03;;;;;;;5.70;5.10;;;23.20;99.90;;;;;;5137888;27;20106;-62
2023/06/06 11:48:29;;;;;;;5.82;5.07;;;23.40;99.90;;;;;;5137781;27;20069;-62
2023/06/06 11:50:54;;;;;;;6.55;4.93;;;23.30;99.90;;;;;;5137889;27;20032;-63
2023/06/06 11:53:30;;;;;;;8.15;5.30;;;23.30;99.90;;;;;;5137496;27;20048;-62
2023/06/06 11:55:56;;;;;;;7.85;4.97;;;23.20;99.90;;;;;;5137638;27;20102;-63
2023/06/06 11:58:24;;;;;;;5.40;4.90;;;23.20;99.90;;;;;;5137234;27;20420;-62
2023/06/06 12:00:55;;;;;;;6.95;5.55;;;23.60;99.90;;;;;;5137281;27;20030;-62
2023/06/06 12:03:21;;;;;;;8.30;5.10;;;24.00;99.90;;;;;;5137546;27;20134;-63
2023/06/06 12:05:58;;;;;;;7.70;4.70;;;24.30;99.90;;;;;;5137455;27;20092;-62
2023/06/06 12:08:24;;;;;;;5.18;4.68;;;24.70;99.90;;;;;;5137275;27;20080;-63
2023/06/06 12:10:50;;;;;;;6.78;4.40;;;25.00;99.90;;;;;;5137606;27;20035;-63
2023/06/06 12:13:32;;;;;;;5.20;4.10;;;25.50;99.90;;;;;;5137436;27;20039;-63
2023/06/06 12:15:58;;;;;;;6.22;4.25;;;25.80;99.00;;;;;;5137260;27;20348;-62
2023/06/06 12:18:24;;;;;;;4.95;4.45;;;25.90;98.90;;;;;;5118870;27;20038;-63
2023/06/06 12:20:50;;;;;;;5.60;4.28;;;26.20;97.50;;;;;;5137364;27;20031;-62
2023/06/06 12:23:29;;;;;;;6.45;4.68;;;26.00;98.00;;;;;;5137049;27;20439;-62
2023/06/06 12:25:58;;;;;;;4.85;4.40;;;26.00;98.20;;;;;;5136824;27;20369;-62
2023/06/06 12:28:24;;;;;;;6.60;3.90;;;25.90;97.60;;;;;;5136977;27;20468;-63
2023/06/06 12:30:51;;;;;;;5.07;4.57;;;25.40;97.40;;;;;;5136636;27;20035;-62
2023/06/06 12:33:23;;;;;;;4.63;3.67;;;24.60;97.50;;;;;;5136371;27;20497;-62
2023/06/06 12:35:49;;;;;;;4.32;3.42;;;24.20;98.90;;;;;;5136758;27;20034;-62
2023/06/06 12:38:22;;;;;;;4.15;3.13;;;24.20;97.60;;;;;;5136673;27;20035;-62
2023/06/06 12:40:57;;;;;;;4.30;3.90;;;24.40;96.60;;;;;;5136802;27;20252;-63